createdAt,value
2024-02-08T00:00:16.672Z,100.0
2024-02-08T00:01:17.325Z,100.0
2024-02-08T00:02:17.070Z,100.0
2024-02-08T00:03:16.671Z,100.0
2024-02-08T00:04:17.340Z,100.0
2024-02-08T00:05:17.127Z,100.0
2024-02-08T00:06:16.791Z,100.0
2024-02-08T00:07:17.585Z,100.0
2024-02-08T00:08:17.195Z,100.0
2024-02-08T00:09:16.827Z,100.0
2024-02-08T00:10:17.407Z,100.0
2024-02-08T00:11:16.987Z,100.0
2024-02-08T00:12:16.557Z,100.0
2024-02-08T00:13:17.141Z,100.0
2024-02-08T00:14:16.826Z,100.0
2024-02-08T00:15:17.545Z,100.0
2024-02-08T00:16:17.108Z,100.0
2024-02-08T00:17:16.646Z,100.0
2024-02-08T00:18:17.397Z,100.0
2024-02-08T00:19:17.469Z,100.0
2024-02-08T00:20:17.183Z,100.0
2024-02-08T00:21:16.909Z,100.0
2024-02-08T00:22:17.509Z,100.0
2024-02-08T00:23:17.197Z,100.0
2024-02-08T00:24:16.826Z,100.0
2024-02-08T00:25:17.430Z,100.0
2024-02-08T00:26:17.118Z,100.0
2024-02-08T00:27:16.746Z,100.0
2024-02-08T00:28:17.299Z,100.0
2024-02-08T00:29:16.984Z,100.0
2024-02-08T00:30:16.585Z,100.0
2024-02-08T00:31:17.122Z,100.0
2024-02-08T00:32:16.912Z,100.0
2024-02-08T00:33:17.607Z,99.8
2024-02-08T00:34:17.221Z,99.9
2024-02-08T00:35:16.871Z,99.8
2024-02-08T00:36:17.451Z,99.7
2024-02-08T00:37:17.053Z,99.6
2024-02-08T00:38:16.870Z,99.7
2024-02-08T00:39:17.493Z,99.8
2024-02-08T00:40:17.058Z,99.8
2024-02-08T00:41:16.638Z,99.7
2024-02-08T00:42:17.210Z,99.7
2024-02-08T00:43:16.763Z,99.6
2024-02-08T00:44:17.349Z,99.5
2024-02-08T00:45:16.926Z,99.3
2024-02-08T00:46:17.477Z,99.4
2024-02-08T00:47:17.008Z,99.3
2024-02-08T00:48:16.872Z,99.3
2024-02-08T00:49:17.581Z,99.2
2024-02-08T00:50:17.303Z,99.4
2024-02-08T00:51:17.015Z,99.4
2024-02-08T00:52:16.582Z,99.3
2024-02-08T00:53:17.219Z,99.4
2024-02-08T00:54:16.835Z,99.5
2024-02-08T00:55:17.376Z,99.5
2024-02-08T00:56:17.139Z,99.5
2024-02-08T00:57:16.705Z,99.4
2024-02-08T00:58:17.416Z,99.3
2024-02-08T00:59:17.424Z,99.4
2024-02-08T01:00:17.064Z,99.4
2024-02-08T01:01:16.684Z,99.4
2024-02-08T01:02:17.436Z,99.4
2024-02-08T01:03:17.265Z,99.4
2024-02-08T01:04:16.869Z,99.5
2024-02-08T01:05:17.755Z,99.4
2024-02-08T01:06:17.485Z,99.5
2024-02-08T01:07:17.111Z,99.6
2024-02-08T01:08:16.787Z,99.6
2024-02-08T01:09:17.365Z,99.4
2024-02-08T01:10:16.898Z,99.3
2024-02-08T01:11:17.506Z,99.3
2024-02-08T01:12:17.169Z,99.3
2024-02-08T01:13:16.762Z,99.2
2024-02-08T01:14:17.396Z,99.3
2024-02-08T01:15:16.985Z,99.4
2024-02-08T01:16:16.575Z,99.4
2024-02-08T01:17:17.503Z,99.4
2024-02-08T01:18:17.457Z,99.4
2024-02-08T01:19:17.141Z,99.4
2024-02-08T01:20:16.810Z,99.4
2024-02-08T01:21:17.353Z,99.5
2024-02-08T01:22:16.916Z,99.5
2024-02-08T01:23:17.578Z,99.7
2024-02-08T01:24:17.180Z,99.7
2024-02-08T01:25:16.765Z,99.7
2024-02-08T01:26:17.490Z,99.7
2024-02-08T01:27:17.155Z,99.7
2024-02-08T01:28:16.713Z,99.8
2024-02-08T01:29:17.282Z,99.8
2024-02-08T01:30:16.861Z,99.8
2024-02-08T01:31:17.488Z,99.8
2024-02-08T01:32:17.049Z,99.8
2024-02-08T01:33:16.610Z,99.8
2024-02-08T01:34:17.428Z,99.8
2024-02-08T01:35:17.082Z,99.9
2024-02-08T01:36:16.696Z,99.9
2024-02-08T01:37:17.281Z,99.9
2024-02-08T01:38:16.964Z,99.9
2024-02-08T01:39:16.561Z,100.0
2024-02-08T01:40:17.132Z,100.0
2024-02-08T01:41:16.691Z,100.0
2024-02-08T01:42:17.303Z,100.0
2024-02-08T01:43:16.865Z,100.0
2024-02-08T01:44:17.421Z,100.0
2024-02-08T01:45:17.057Z,100.0
2024-02-08T01:46:16.656Z,100.0
2024-02-08T01:47:17.341Z,100.0
2024-02-08T01:48:18.368Z,100.0
2024-02-08T01:49:17.061Z,100.0
2024-02-08T01:50:16.793Z,100.0
2024-02-08T01:51:17.378Z,100.0
2024-02-08T01:52:16.973Z,100.0
2024-02-08T01:53:16.954Z,100.0
2024-02-08T01:54:16.584Z,100.0
2024-02-08T01:55:17.164Z,100.0
2024-02-08T01:56:16.835Z,100.0
2024-02-08T01:57:17.421Z,100.0
2024-02-08T01:58:16.974Z,100.0
2024-02-08T01:59:16.592Z,100.0
2024-02-08T02:00:17.202Z,100.0
2024-02-08T02:01:16.935Z,100.0
2024-02-08T02:02:16.618Z,100.0
2024-02-08T02:03:17.245Z,100.0
2024-02-08T02:04:17.198Z,100.0
2024-02-08T02:05:17.178Z,100.0
2024-02-08T02:06:16.864Z,100.0
2024-02-08T02:07:17.432Z,100.0
2024-02-08T02:08:16.979Z,100.0
2024-02-08T02:09:16.532Z,100.0
2024-02-08T02:10:17.233Z,100.0
2024-02-08T02:11:17.387Z,100.0
2024-02-08T02:12:17.075Z,100.0
2024-02-08T02:13:16.647Z,100.0
2024-02-08T02:14:17.396Z,100.0
2024-02-08T02:15:17.014Z,100.0
2024-02-08T02:16:16.574Z,100.0
2024-02-08T02:17:17.936Z,100.0
2024-02-08T02:18:16.794Z,100.0
2024-02-08T02:19:17.450Z,100.0
2024-02-08T02:20:17.171Z,100.0
2024-02-08T02:21:16.742Z,100.0
2024-02-08T02:22:17.345Z,100.0
2024-02-08T02:23:17.023Z,100.0
2024-02-08T02:24:16.582Z,100.0
2024-02-08T02:25:17.135Z,100.0
2024-02-08T02:26:16.855Z,100.0
2024-02-08T02:27:17.540Z,100.0
2024-02-08T02:28:17.098Z,100.0
2024-02-08T02:29:16.689Z,100.0
2024-02-08T02:30:17.866Z,100.0
2024-02-08T02:31:17.438Z,100.0
2024-02-08T02:32:17.768Z,100.0
2024-02-08T02:33:17.690Z,100.0
2024-02-08T02:34:17.401Z,100.0
2024-02-08T02:35:17.069Z,100.0
2024-02-08T02:36:16.649Z,100.0
2024-02-08T02:37:17.192Z,100.0
2024-02-08T02:38:16.858Z,100.0
2024-02-08T02:39:17.499Z,100.0
2024-02-08T02:40:17.074Z,100.0
2024-02-08T02:41:16.795Z,100.0
2024-02-08T02:42:17.383Z,100.0
2024-02-08T02:43:16.928Z,100.0
2024-02-08T02:44:17.627Z,100.0
2024-02-08T02:45:17.219Z,100.0
2024-02-08T02:46:16.762Z,100.0
2024-02-08T02:47:17.421Z,100.0
2024-02-08T02:48:17.164Z,100.0
2024-02-08T02:49:16.751Z,100.0
2024-02-08T02:50:17.451Z,100.0
2024-02-08T02:51:17.069Z,100.0
2024-02-08T02:52:16.643Z,100.0
2024-02-08T02:53:17.277Z,100.0
2024-02-08T02:54:16.883Z,100.0
2024-02-08T02:55:17.453Z,100.0
2024-02-08T02:56:17.094Z,100.0
2024-02-08T02:57:16.729Z,100.0
2024-02-08T02:58:17.274Z,100.0
2024-02-08T02:59:16.933Z,100.0
2024-02-08T03:00:17.501Z,100.0
2024-02-08T03:01:17.125Z,100.0
2024-02-08T03:02:17.027Z,100.0
2024-02-08T03:03:16.606Z,100.0
2024-02-08T03:04:17.180Z,100.0
2024-02-08T03:05:16.799Z,100.0
2024-02-08T03:06:17.995Z,100.0
2024-02-08T03:07:16.650Z,100.0
2024-02-08T03:08:17.568Z,100.0
2024-02-08T03:09:16.930Z,100.0
2024-02-08T03:10:16.594Z,100.0
2024-02-08T03:11:17.407Z,100.0
2024-02-08T03:12:17.060Z,100.0
2024-02-08T03:13:16.876Z,100.0
2024-02-08T03:14:17.493Z,100.0
2024-02-08T03:15:17.089Z,100.0
2024-02-08T03:16:16.806Z,100.0
2024-02-08T03:17:17.454Z,100.0
2024-02-08T03:18:17.058Z,100.0
2024-02-08T03:19:16.767Z,100.0
2024-02-08T03:20:17.660Z,100.0
2024-02-08T03:21:17.265Z,100.0
2024-02-08T03:22:16.819Z,100.0
2024-02-08T03:23:17.635Z,100.0
2024-02-08T03:24:17.201Z,100.0
2024-02-08T03:25:16.775Z,100.0
2024-02-08T03:26:17.401Z,100.0
2024-02-08T03:27:16.970Z,100.0
2024-02-08T03:28:16.520Z,100.0
2024-02-08T03:29:17.482Z,100.0
2024-02-08T03:30:17.259Z,100.0
2024-02-08T03:31:16.823Z,100.0
2024-02-08T03:32:17.453Z,100.0
2024-02-08T03:33:18.338Z,100.0
2024-02-08T03:34:16.974Z,100.0
2024-02-08T03:35:16.687Z,100.0
2024-02-08T03:36:17.247Z,100.0
2024-02-08T03:37:16.810Z,100.0
2024-02-08T03:38:17.456Z,100.0
2024-02-08T03:39:17.014Z,100.0
2024-02-08T03:40:16.578Z,100.0
2024-02-08T03:41:17.193Z,100.0
2024-02-08T03:42:16.789Z,100.0
2024-02-08T03:43:17.564Z,100.0
2024-02-08T03:44:17.244Z,100.0
2024-02-08T03:45:16.864Z,100.0
2024-02-08T03:46:17.531Z,100.0
2024-02-08T03:47:17.321Z,100.0
2024-02-08T03:48:17.266Z,100.0
2024-02-08T03:49:16.902Z,100.0
2024-02-08T03:50:17.667Z,100.0
2024-02-08T03:51:17.262Z,100.0
2024-02-08T03:52:16.842Z,100.0
2024-02-08T03:53:17.574Z,100.0
2024-02-08T03:54:17.171Z,100.0
2024-02-08T03:55:16.737Z,100.0
2024-02-08T03:56:17.466Z,100.0
2024-02-08T03:57:17.085Z,100.0
2024-02-08T03:58:16.878Z,100.0
2024-02-08T03:59:21.220Z,100.0
2024-02-08T04:00:16.897Z,100.0
2024-02-08T04:01:17.517Z,100.0
2024-02-08T04:02:17.167Z,100.0
2024-02-08T04:03:16.852Z,100.0
2024-02-08T04:04:17.943Z,100.0
2024-02-08T04:05:16.765Z,100.0
2024-02-08T04:06:17.530Z,100.0
2024-02-08T04:07:17.222Z,100.0
2024-02-08T04:08:16.933Z,100.0
2024-02-08T04:09:17.723Z,100.0
2024-02-08T04:10:16.565Z,100.0
2024-02-08T04:11:17.186Z,100.0
2024-02-08T04:12:16.816Z,100.0
2024-02-08T04:13:17.373Z,100.0
2024-02-08T04:14:16.998Z,100.0
2024-02-08T04:15:16.570Z,100.0
2024-02-08T04:16:17.125Z,100.0
2024-02-08T04:17:16.667Z,100.0
2024-02-08T04:18:17.495Z,100.0
2024-02-08T04:19:17.203Z,100.0
2024-02-08T04:20:16.831Z,100.0
2024-02-08T04:21:17.468Z,100.0
2024-02-08T04:22:17.043Z,100.0
2024-02-08T04:23:16.705Z,100.0
2024-02-08T04:24:17.309Z,100.0
2024-02-08T04:25:16.875Z,100.0
2024-02-08T04:26:17.524Z,100.0
2024-02-08T04:27:17.089Z,100.0
2024-02-08T04:28:16.644Z,100.0
2024-02-08T04:29:17.409Z,100.0
2024-02-08T04:30:17.056Z,100.0
2024-02-08T04:31:16.606Z,100.0
2024-02-08T04:32:17.189Z,100.0
2024-02-08T04:33:16.912Z,100.0
2024-02-08T04:34:17.683Z,100.0
2024-02-08T04:35:17.378Z,100.0
2024-02-08T04:36:16.995Z,100.0
2024-02-08T04:37:16.668Z,100.0
2024-02-08T04:38:16.562Z,100.0
2024-02-08T04:39:17.170Z,100.0
2024-02-08T04:40:16.764Z,100.0
2024-02-08T04:41:17.539Z,100.0
2024-02-08T04:42:17.163Z,100.0
2024-02-08T04:43:16.699Z,100.0
2024-02-08T04:44:17.322Z,100.0
2024-02-08T04:45:16.921Z,100.0
2024-02-08T04:46:17.501Z,100.0
2024-02-08T04:47:17.132Z,100.0
2024-02-08T04:48:17.024Z,100.0
2024-02-08T04:49:16.635Z,100.0
2024-02-08T04:50:17.315Z,100.0
2024-02-08T04:51:16.918Z,100.0
2024-02-08T04:52:17.476Z,100.0
2024-02-08T04:53:17.262Z,100.0
2024-02-08T04:54:16.817Z,100.0
2024-02-08T04:55:17.367Z,100.0
2024-02-08T04:56:17.184Z,100.0
2024-02-08T04:57:16.850Z,100.0
2024-02-08T04:58:36.334Z,100.0
2024-02-08T04:59:23.896Z,100.0
2024-02-08T05:00:16.896Z,100.0
2024-02-08T05:01:17.515Z,100.0
2024-02-08T05:02:17.112Z,100.0
2024-02-08T05:03:16.655Z,100.0
2024-02-08T05:04:17.389Z,100.0
2024-02-08T05:05:17.130Z,100.0
2024-02-08T05:06:16.887Z,100.0
2024-02-08T05:07:17.641Z,100.0
2024-02-08T05:08:17.581Z,100.0
2024-02-08T05:09:17.637Z,100.0
2024-02-08T05:10:17.350Z,100.0
2024-02-08T05:11:17.211Z,100.0
2024-02-08T05:12:16.916Z,100.0
2024-02-08T05:13:17.561Z,100.0
2024-02-08T05:14:17.114Z,100.0
2024-02-08T05:15:16.675Z,100.0
2024-02-08T05:16:17.329Z,100.0
2024-02-08T05:17:16.932Z,100.0
2024-02-08T05:18:17.661Z,100.0
2024-02-08T05:19:17.407Z,100.0
2024-02-08T05:20:17.060Z,100.0
2024-02-08T05:21:16.657Z,100.0
2024-02-08T05:22:17.293Z,100.0
2024-02-08T05:23:16.886Z,100.0
2024-02-08T05:24:17.450Z,100.0
2024-02-08T05:25:17.163Z,100.0
2024-02-08T05:26:16.772Z,100.0
2024-02-08T05:27:17.374Z,100.0
2024-02-08T05:28:17.235Z,100.0
2024-02-08T05:29:16.813Z,100.0
2024-02-08T05:30:17.377Z,100.0
2024-02-08T05:31:17.065Z,100.0
2024-02-08T05:32:16.612Z,100.0
2024-02-08T05:33:18.776Z,100.0
2024-02-08T05:34:19.481Z,100.0
2024-02-08T05:35:17.545Z,100.0
2024-02-08T05:36:17.214Z,100.0
2024-02-08T05:37:16.866Z,100.0
2024-02-08T05:38:17.747Z,100.0
2024-02-08T05:39:17.293Z,100.0
2024-02-08T05:40:17.020Z,100.0
2024-02-08T05:41:16.569Z,100.0
2024-02-08T05:42:17.157Z,100.0
2024-02-08T05:43:16.796Z,100.0
2024-02-08T05:44:17.373Z,100.0
2024-02-08T05:45:16.957Z,100.0
2024-02-08T05:46:17.630Z,100.0
2024-02-08T05:47:17.217Z,100.0
2024-02-08T05:48:17.083Z,100.0
2024-02-08T05:49:17.392Z,100.0
2024-02-08T05:50:17.249Z,100.0
2024-02-08T05:51:16.823Z,100.0
2024-02-08T05:52:17.682Z,100.0
2024-02-08T05:53:17.468Z,100.0
2024-02-08T05:54:17.062Z,100.0
2024-02-08T05:55:16.664Z,100.0
2024-02-08T05:56:17.230Z,100.0
2024-02-08T05:57:16.846Z,100.0
2024-02-08T05:58:17.594Z,100.0
2024-02-08T05:59:17.261Z,100.0
2024-02-08T06:00:16.807Z,100.0
2024-02-08T06:01:17.696Z,100.0
2024-02-08T06:02:17.967Z,100.0
2024-02-08T06:03:16.671Z,100.0
2024-02-08T06:04:17.450Z,100.0
2024-02-08T06:05:19.338Z,100.0
2024-02-08T06:06:17.349Z,100.0
2024-02-08T06:07:17.035Z,100.0
2024-02-08T06:08:16.698Z,100.0
2024-02-08T06:09:17.238Z,100.0
2024-02-08T06:10:17.379Z,100.0
2024-02-08T06:11:16.946Z,100.0
2024-02-08T06:12:17.542Z,100.0
2024-02-08T06:13:17.215Z,100.0
2024-02-08T06:14:16.784Z,100.0
2024-02-08T06:15:17.355Z,100.0
2024-02-08T06:16:16.987Z,100.0
2024-02-08T06:17:16.600Z,100.0
2024-02-08T06:18:17.263Z,100.0
2024-02-08T06:19:17.393Z,100.0
2024-02-08T06:20:17.169Z,100.0
2024-02-08T06:21:16.757Z,100.0
2024-02-08T06:22:17.467Z,100.0
2024-02-08T06:23:17.081Z,100.0
2024-02-08T06:24:16.633Z,100.0
2024-02-08T06:25:17.259Z,100.0
2024-02-08T06:26:16.803Z,100.0
2024-02-08T06:27:17.400Z,100.0
2024-02-08T06:28:17.049Z,100.0
2024-02-08T06:29:16.615Z,100.0
2024-02-08T06:30:17.250Z,100.0
2024-02-08T06:31:17.126Z,100.0
2024-02-08T06:32:16.736Z,100.0
2024-02-08T06:33:17.581Z,100.0
2024-02-08T06:34:17.527Z,100.0
2024-02-08T06:35:17.282Z,100.0
2024-02-08T06:36:16.826Z,100.0
2024-02-08T06:37:19.018Z,100.0
2024-02-08T06:38:16.613Z,100.0
2024-02-08T06:39:17.164Z,100.0
2024-02-08T06:40:16.837Z,100.0
2024-02-08T06:41:17.403Z,100.0
2024-02-08T06:42:16.951Z,100.0
2024-02-08T06:43:17.614Z,100.0
2024-02-08T06:44:17.218Z,100.0
2024-02-08T06:45:16.824Z,100.0
2024-02-08T06:46:17.501Z,100.0
2024-02-08T06:47:17.102Z,100.0
2024-02-08T06:48:17.226Z,100.0
2024-02-08T06:49:17.118Z,100.0
2024-02-08T06:50:16.722Z,100.0
2024-02-08T06:51:17.265Z,100.0
2024-02-08T06:52:16.884Z,100.0
2024-02-08T06:53:17.518Z,100.0
2024-02-08T06:54:17.098Z,100.0
2024-02-08T06:55:16.752Z,100.0
2024-02-08T06:56:17.350Z,100.0
2024-02-08T06:57:16.943Z,100.0
2024-02-08T06:58:17.573Z,100.0
2024-02-08T06:59:17.227Z,100.0
2024-02-08T07:00:16.815Z,100.0
2024-02-08T07:01:17.490Z,100.0
2024-02-08T07:02:17.124Z,100.0
2024-02-08T07:03:16.764Z,100.0
2024-02-08T07:04:17.804Z,100.0
2024-02-08T07:05:17.603Z,100.0
2024-02-08T07:06:17.283Z,100.0
2024-02-08T07:07:17.102Z,100.0
2024-02-08T07:08:16.925Z,100.0
2024-02-08T07:09:16.569Z,100.0
2024-02-08T07:10:17.230Z,100.0
2024-02-08T07:11:16.857Z,100.0
2024-02-08T07:12:17.422Z,100.0
2024-02-08T07:13:17.072Z,100.0
2024-02-08T07:14:16.680Z,100.0
2024-02-08T07:15:17.254Z,100.0
2024-02-08T07:16:16.971Z,100.0
2024-02-08T07:17:16.562Z,100.0
2024-02-08T07:18:17.328Z,100.0
2024-02-08T07:19:17.248Z,100.0
2024-02-08T07:20:17.110Z,100.0
2024-02-08T07:21:16.776Z,100.0
2024-02-08T07:22:17.369Z,100.0
2024-02-08T07:23:16.988Z,100.0
2024-02-08T07:24:16.575Z,100.0
2024-02-08T07:25:17.170Z,100.0
2024-02-08T07:26:16.817Z,100.0
2024-02-08T07:27:17.421Z,100.0
2024-02-08T07:28:17.105Z,100.0
2024-02-08T07:29:16.732Z,100.0
2024-02-08T07:30:17.383Z,100.0
2024-02-08T07:31:17.063Z,100.0
2024-02-08T07:32:16.706Z,100.0
2024-02-08T07:33:17.518Z,100.0
2024-02-08T07:34:17.391Z,100.0
2024-02-08T07:35:17.108Z,100.0
2024-02-08T07:36:16.865Z,100.0
2024-02-08T07:37:16.885Z,100.0
2024-02-08T07:38:17.527Z,100.0
2024-02-08T07:39:17.118Z,100.0
2024-02-08T07:40:16.925Z,100.0
2024-02-08T07:41:16.559Z,100.0
2024-02-08T07:42:17.099Z,100.0
2024-02-08T07:43:18.469Z,100.0
2024-02-08T07:44:17.218Z,100.0
2024-02-08T07:45:16.767Z,100.0
2024-02-08T07:46:17.439Z,100.0
2024-02-08T07:47:17.034Z,100.0
2024-02-08T07:48:16.861Z,100.0
2024-02-08T07:49:17.678Z,100.0
2024-02-08T07:50:17.378Z,100.0
2024-02-08T07:51:17.946Z,100.0
2024-02-08T07:52:17.569Z,100.0
2024-02-08T07:53:17.149Z,100.0
2024-02-08T07:54:16.732Z,100.0
2024-02-08T07:55:17.418Z,100.0
2024-02-08T07:56:17.052Z,100.0
2024-02-08T07:57:16.642Z,100.0
2024-02-08T07:58:17.316Z,100.0
2024-02-08T07:59:16.914Z,100.0
2024-02-08T08:00:17.462Z,100.0
2024-02-08T08:01:17.112Z,100.0
2024-02-08T08:02:16.780Z,100.0
2024-02-08T08:03:18.510Z,100.0
2024-02-08T08:04:17.173Z,100.0
2024-02-08T08:05:17.267Z,100.0
2024-02-08T08:06:17.102Z,100.0
2024-02-08T08:07:16.785Z,100.0
2024-02-08T08:08:17.385Z,100.0
2024-02-08T08:09:16.985Z,100.0
2024-02-08T08:10:16.681Z,100.0
2024-02-08T08:11:17.705Z,100.0
2024-02-08T08:12:17.230Z,100.0
2024-02-08T08:13:16.873Z,100.0
2024-02-08T08:14:17.476Z,100.0
2024-02-08T08:15:17.021Z,100.0
2024-02-08T08:16:16.670Z,100.0
2024-02-08T08:17:17.258Z,100.0
2024-02-08T08:18:16.837Z,100.0
2024-02-08T08:19:17.562Z,100.0
2024-02-08T08:20:18.813Z,100.0
2024-02-08T08:21:16.671Z,100.0
2024-02-08T08:22:17.332Z,100.0
2024-02-08T08:23:16.951Z,100.0
2024-02-08T08:24:17.497Z,100.0
2024-02-08T08:25:17.356Z,100.0
2024-02-08T08:26:16.979Z,100.0
2024-02-08T08:27:16.544Z,100.0
2024-02-08T08:28:17.234Z,100.0
2024-02-08T08:29:17.125Z,100.0
2024-02-08T08:30:16.674Z,100.0
2024-02-08T08:31:17.386Z,100.0
2024-02-08T08:32:16.992Z,100.0
2024-02-08T08:33:16.915Z,100.0
2024-02-08T08:34:16.859Z,100.0
2024-02-08T08:35:17.636Z,100.0
2024-02-08T08:36:17.213Z,100.0
2024-02-08T08:37:16.883Z,100.0
2024-02-08T08:38:17.571Z,100.0
2024-02-08T08:39:17.194Z,100.0
2024-02-08T08:40:17.153Z,100.0
2024-02-08T08:41:17.657Z,100.0
2024-02-08T08:42:17.293Z,100.0
2024-02-08T08:43:17.090Z,100.0
2024-02-08T08:44:16.890Z,100.0
2024-02-08T08:45:17.451Z,100.0
2024-02-08T08:46:17.233Z,100.0
2024-02-08T08:47:16.861Z,100.0
2024-02-08T08:48:17.518Z,100.0
2024-02-08T08:49:17.391Z,100.0
2024-02-08T08:50:17.244Z,100.0
2024-02-08T08:51:16.882Z,100.0
2024-02-08T08:52:17.644Z,100.0
2024-02-08T08:53:18.580Z,100.0
2024-02-08T08:54:17.156Z,100.0
2024-02-08T08:55:16.852Z,100.0
2024-02-08T08:56:17.443Z,100.0
2024-02-08T08:57:17.033Z,100.0
2024-02-08T08:58:16.683Z,100.0
2024-02-08T08:59:17.252Z,100.0
2024-02-08T09:00:16.813Z,100.0
2024-02-08T09:01:18.375Z,100.0
2024-02-08T09:02:17.102Z,100.0
2024-02-08T09:03:16.683Z,100.0
2024-02-08T09:04:17.357Z,100.0
2024-02-08T09:05:17.212Z,100.0
2024-02-08T09:06:16.810Z,100.0
2024-02-08T09:07:17.586Z,100.0
2024-02-08T09:08:17.412Z,100.0
2024-02-08T09:09:16.976Z,100.0
2024-02-08T09:10:17.003Z,100.0
2024-02-08T09:11:16.704Z,100.0
2024-02-08T09:12:17.243Z,100.0
2024-02-08T09:13:16.951Z,100.0
2024-02-08T09:14:16.551Z,100.0
2024-02-08T09:15:17.184Z,100.0
2024-02-08T09:16:16.944Z,100.0
2024-02-08T09:17:26.077Z,100.0
2024-02-08T09:18:16.934Z,100.0
2024-02-08T09:19:16.983Z,100.0
2024-02-08T09:20:16.874Z,100.0
2024-02-08T09:21:17.495Z,100.0
2024-02-08T09:22:17.124Z,100.0
2024-02-08T09:23:16.713Z,100.0
2024-02-08T09:24:17.248Z,100.0
2024-02-08T09:25:31.779Z,100.0
2024-02-08T09:26:17.202Z,100.0
2024-02-08T09:27:17.372Z,100.0
2024-02-08T09:28:17.269Z,100.0
2024-02-08T09:29:16.841Z,100.0
2024-02-08T09:30:17.378Z,100.0
2024-02-08T09:31:17.060Z,100.0
2024-02-08T09:32:18.075Z,100.0
2024-02-08T09:33:16.774Z,100.0
2024-02-08T09:34:17.961Z,100.0
2024-02-08T09:35:16.792Z,100.0
2024-02-08T09:36:17.782Z,100.0
2024-02-08T09:37:17.558Z,100.0
2024-02-08T09:38:17.247Z,100.0
2024-02-08T09:39:16.850Z,100.0
2024-02-08T09:40:17.495Z,100.0
2024-02-08T09:41:17.179Z,100.0
2024-02-08T09:42:16.763Z,100.0
2024-02-08T09:43:17.436Z,100.0
2024-02-08T09:44:17.044Z,100.0
2024-02-08T09:45:16.589Z,100.0
2024-02-08T09:46:19.234Z,100.0
2024-02-08T09:47:16.847Z,100.0
2024-02-08T09:48:17.695Z,100.0
2024-02-08T09:49:17.534Z,100.0
2024-02-08T09:50:17.359Z,100.0
2024-02-08T09:51:16.946Z,100.0
2024-02-08T09:52:17.697Z,100.0
2024-02-08T09:53:17.664Z,100.0
2024-02-08T09:54:17.895Z,100.0
2024-02-08T09:55:17.524Z,100.0
2024-02-08T09:56:17.412Z,100.0
2024-02-08T09:57:16.999Z,100.0
2024-02-08T09:58:16.672Z,100.0
2024-02-08T09:59:17.264Z,100.0
2024-02-08T10:00:16.853Z,100.0
2024-02-08T10:01:17.517Z,100.0
2024-02-08T10:02:17.222Z,100.0
2024-02-08T10:03:16.941Z,100.0
2024-02-08T10:04:18.581Z,100.0
2024-02-08T10:05:16.806Z,100.0
2024-02-08T10:06:17.533Z,100.0
2024-02-08T10:07:17.215Z,100.0
2024-02-08T10:08:16.775Z,100.0
2024-02-08T10:09:17.312Z,100.0
2024-02-08T10:10:17.622Z,100.0
2024-02-08T10:11:17.169Z,100.0
2024-02-08T10:12:16.749Z,100.0
2024-02-08T10:13:17.464Z,100.0
2024-02-08T10:14:17.024Z,100.0
2024-02-08T10:15:16.593Z,100.0
2024-02-08T10:16:17.207Z,100.0
2024-02-08T10:17:17.127Z,100.0
2024-02-08T10:18:16.923Z,100.0
2024-02-08T10:19:17.728Z,100.0
2024-02-08T10:20:17.658Z,100.0
2024-02-08T10:21:17.229Z,100.0
2024-02-08T10:22:16.852Z,100.0
2024-02-08T10:23:17.452Z,100.0
2024-02-08T10:24:19.212Z,100.0
2024-02-08T10:25:16.818Z,100.0
2024-02-08T10:26:17.426Z,100.0
2024-02-08T10:27:17.052Z,100.0
2024-02-08T10:28:16.712Z,100.0
2024-02-08T10:29:17.270Z,100.0
2024-02-08T10:30:16.824Z,100.0
2024-02-08T10:31:17.478Z,100.0
2024-02-08T10:32:17.038Z,100.0
2024-02-08T10:33:17.335Z,100.0
2024-02-08T10:34:17.142Z,100.0
2024-02-08T10:35:17.052Z,100.0
2024-02-08T10:36:17.239Z,99.9
2024-02-08T10:37:16.844Z,99.8
2024-02-08T10:38:17.413Z,99.8
2024-02-08T10:39:17.113Z,99.9
2024-02-08T10:40:16.912Z,99.8
2024-02-08T10:41:17.629Z,99.8
2024-02-08T10:42:17.188Z,99.7
2024-02-08T10:43:16.790Z,99.7
2024-02-08T10:44:17.367Z,99.7
2024-02-08T10:45:16.931Z,99.8
2024-02-08T10:46:18.468Z,99.6
2024-02-08T10:47:31.729Z,99.5
2024-02-08T10:48:16.960Z,99.4
2024-02-08T10:49:16.756Z,99.4
2024-02-08T10:50:17.805Z,99.2
2024-02-08T10:51:16.534Z,99.1
2024-02-08T10:52:17.387Z,99.0
2024-02-08T10:53:18.144Z,99.2
2024-02-08T10:54:17.289Z,99.2
2024-02-08T10:55:17.042Z,99.2
2024-02-08T10:56:16.883Z,98.8
2024-02-08T10:57:17.417Z,98.5
2024-02-08T10:58:17.075Z,98.4
2024-02-08T10:59:16.649Z,98.3
2024-02-08T11:00:17.225Z,98.3
2024-02-08T11:01:16.864Z,98.2
2024-02-08T11:02:17.569Z,97.8
2024-02-08T11:03:17.228Z,98.1
2024-02-08T11:04:16.870Z,98.2
2024-02-08T11:05:17.570Z,98.2
2024-02-08T11:06:17.138Z,98.2
2024-02-08T11:07:16.977Z,98.3
2024-02-08T11:08:16.661Z,98.4
2024-02-08T11:09:17.268Z,98.5
2024-02-08T11:10:16.874Z,98.4
2024-02-08T11:11:17.461Z,98.5
2024-02-08T11:12:18.995Z,98.0
2024-02-08T11:13:16.612Z,97.9
2024-02-08T11:14:17.305Z,97.8
2024-02-08T11:15:16.875Z,97.8
2024-02-08T11:16:17.561Z,97.9
2024-02-08T11:17:17.355Z,98.1
2024-02-08T11:18:17.000Z,98.2
2024-02-08T11:19:16.684Z,98.4
2024-02-08T11:20:17.401Z,98.6
2024-02-08T11:21:17.013Z,98.6
2024-02-08T11:22:16.758Z,99.3
2024-02-08T11:23:17.351Z,100.0
2024-02-08T11:24:16.894Z,100.0
2024-02-08T11:25:17.557Z,100.0
2024-02-08T11:26:17.154Z,100.0
2024-02-08T11:27:16.763Z,99.4
2024-02-08T11:28:27.426Z,99.4
2024-02-08T11:29:17.351Z,99.3
2024-02-08T11:30:16.981Z,99.5
2024-02-08T11:31:16.666Z,99.6
2024-02-08T11:32:17.302Z,99.8
2024-02-08T11:33:16.829Z,100.0
2024-02-08T11:34:17.653Z,100.0
2024-02-08T11:35:17.540Z,99.9
2024-02-08T11:36:17.189Z,100.0
2024-02-08T11:37:16.863Z,100.0
2024-02-08T11:38:18.701Z,100.0
2024-02-08T11:39:16.578Z,100.0
2024-02-08T11:40:17.234Z,100.0
2024-02-08T11:41:16.798Z,100.0
2024-02-08T11:42:17.465Z,100.0
2024-02-08T11:43:17.110Z,100.0
2024-02-08T11:44:16.757Z,100.0
2024-02-08T11:45:17.337Z,99.9
2024-02-08T11:46:17.026Z,99.7
2024-02-08T11:47:16.591Z,99.6
2024-02-08T11:48:17.346Z,99.6
2024-02-08T11:49:18.272Z,99.6
2024-02-08T11:50:16.952Z,99.6
2024-02-08T11:51:16.573Z,99.6
2024-02-08T11:52:17.175Z,99.9
2024-02-08T11:53:16.714Z,99.9
2024-02-08T11:54:17.285Z,100.0
2024-02-08T11:55:17.228Z,100.0
2024-02-08T11:56:16.814Z,100.0
2024-02-08T11:57:22.094Z,100.0
2024-02-08T11:58:16.839Z,100.0
2024-02-08T11:59:17.486Z,100.0
2024-02-08T12:00:18.374Z,100.0
2024-02-08T12:01:17.675Z,100.0
2024-02-08T12:02:16.767Z,100.0
2024-02-08T12:03:17.461Z,100.0
2024-02-08T12:04:17.172Z,100.0
2024-02-08T12:05:16.944Z,100.0
2024-02-08T12:06:16.715Z,100.0
2024-02-08T12:07:17.504Z,100.0
2024-02-08T12:08:17.149Z,100.0
2024-02-08T12:09:16.720Z,100.0
2024-02-08T12:10:17.449Z,100.0
2024-02-08T12:11:17.029Z,100.0
2024-02-08T12:12:16.566Z,100.0
2024-02-08T12:13:17.231Z,100.0
2024-02-08T12:14:27.552Z,100.0
2024-02-08T12:15:22.253Z,100.0
2024-02-08T12:16:16.983Z,100.0
2024-02-08T12:17:16.652Z,100.0
2024-02-08T12:18:17.306Z,100.0
2024-02-08T12:19:17.540Z,100.0
2024-02-08T12:20:17.294Z,100.0
2024-02-08T12:21:16.846Z,100.0
2024-02-08T12:22:17.473Z,100.0
2024-02-08T12:23:17.025Z,100.0
2024-02-08T12:24:16.598Z,100.0
2024-02-08T12:25:17.609Z,100.0
2024-02-08T12:26:17.194Z,100.0
2024-02-08T12:27:17.749Z,100.0
2024-02-08T12:28:17.378Z,100.0
2024-02-08T12:29:16.971Z,100.0
2024-02-08T12:30:16.694Z,100.0
2024-02-08T12:31:17.600Z,100.0
2024-02-08T12:32:16.664Z,100.0
2024-02-08T12:33:17.426Z,100.0
2024-02-08T12:34:17.427Z,100.0
2024-02-08T12:35:17.196Z,100.0
2024-02-08T12:36:16.814Z,100.0
2024-02-08T12:37:17.577Z,100.0
2024-02-08T12:38:17.147Z,100.0
2024-02-08T12:39:16.703Z,100.0
2024-02-08T12:40:17.522Z,100.0
2024-02-08T12:41:17.168Z,100.0
2024-02-08T12:42:16.762Z,100.0
2024-02-08T12:43:17.423Z,100.0
2024-02-08T12:44:17.134Z,100.0
2024-02-08T12:45:16.723Z,99.9
2024-02-08T12:46:17.473Z,99.8
2024-02-08T12:47:17.061Z,99.5
2024-02-08T12:48:16.910Z,99.4
2024-02-08T12:49:17.747Z,99.5
2024-02-08T12:50:27.393Z,99.6
2024-02-08T12:51:16.675Z,99.6
2024-02-08T12:52:18.254Z,99.4
2024-02-08T12:53:17.173Z,99.3
2024-02-08T12:54:16.732Z,99.3
2024-02-08T12:55:17.449Z,99.5
2024-02-08T12:56:17.584Z,99.7
2024-02-08T12:57:17.143Z,99.6